sensor_id;sensor_type;location;lat;lon;timestamp;P1;durP1;ratioP1;P2;durP2;ratioP2
19339;SDS011;9804;52.350;6.684;2023-01-28T00:02:00;8.07;;;5.90;;
19339;SDS011;9804;52.350;6.684;2023-01-28T00:04:26;7.50;;;5.97;;
19339;SDS011;9804;52.350;6.684;2023-01-28T00:06:51;7.40;;;5.80;;
19339;SDS011;9804;52.350;6.684;2023-01-28T00:09:17;7.30;;;5.97;;
19339;SDS011;9804;52.350;6.684;2023-01-28T00:11:43;7.90;;;5.53;;
19339;SDS011;9804;52.350;6.684;2023-01-28T00:14:09;7.30;;;5.73;;
19339;SDS011;9804;52.350;6.684;2023-01-28T00:16:35;7.10;;;5.60;;
19339;SDS011;9804;52.350;6.684;2023-01-28T00:19:00;6.23;;;5.47;;
19339;SDS011;9804;52.350;6.684;2023-01-28T00:21:26;6.73;;;5.50;;
19339;SDS011;9804;52.350;6.684;2023-01-28T00:23:52;7.47;;;6.17;;
19339;SDS011;9804;52.350;6.684;2023-01-28T00:26:19;6.97;;;5.60;;
19339;SDS011;9804;52.350;6.684;2023-01-28T00:28:46;6.70;;;5.30;;
19339;SDS011;9804;52.350;6.684;2023-01-28T00:31:15;6.60;;;5.50;;
19339;SDS011;9804;52.350;6.684;2023-01-28T00:33:43;6.80;;;5.67;;
19339;SDS011;9804;52.350;6.684;2023-01-28T00:36:10;7.97;;;6.03;;
19339;SDS011;9804;52.350;6.684;2023-01-28T00:38:36;8.00;;;6.20;;
19339;SDS011;9804;52.350;6.684;2023-01-28T00:43:34;7.27;;;5.73;;
19339;SDS011;9804;52.350;6.684;2023-01-28T00:46:00;8.77;;;6.50;;
19339;SDS011;9804;52.350;6.684;2023-01-28T00:48:25;8.57;;;6.60;;
19339;SDS011;9804;52.350;6.684;2023-01-28T00:50:51;8.10;;;6.30;;
19339;SDS011;9804;52.350;6.684;2023-01-28T00:53:16;10.03;;;6.70;;
19339;SDS011;9804;52.350;6.684;2023-01-28T00:55:41;9.07;;;6.43;;
19339;SDS011;9804;52.350;6.684;2023-01-28T00:58:07;8.27;;;6.30;;
19339;SDS011;9804;52.350;6.684;2023-01-28T01:00:32;10.00;;;6.53;;
19339;SDS011;9804;52.350;6.684;2023-01-28T01:02:58;9.67;;;6.63;;
19339;SDS011;9804;52.350;6.684;2023-01-28T01:05:23;8.73;;;7.07;;
19339;SDS011;9804;52.350;6.684;2023-01-28T01:07:49;9.83;;;6.77;;
19339;SDS011;9804;52.350;6.684;2023-01-28T01:10:15;10.03;;;7.30;;
19339;SDS011;9804;52.350;6.684;2023-01-28T01:12:42;10.83;;;7.60;;
19339;SDS011;9804;52.350;6.684;2023-01-28T01:15:10;9.83;;;7.13;;
19339;SDS011;9804;52.350;6.684;2023-01-28T01:17:39;12.77;;;7.77;;
19339;SDS011;9804;52.350;6.684;2023-01-28T01:20:07;11.17;;;7.00;;
19339;SDS011;9804;52.350;6.684;2023-01-28T01:22:36;10.03;;;7.50;;
19339;SDS011;9804;52.350;6.684;2023-01-28T01:25:03;12.00;;;6.77;;
19339;SDS011;9804;52.350;6.684;2023-01-28T01:27:29;10.10;;;7.17;;
19339;SDS011;9804;52.350;6.684;2023-01-28T01:29:55;10.17;;;7.10;;
19339;SDS011;9804;52.350;6.684;2023-01-28T01:32:20;9.43;;;7.43;;
19339;SDS011;9804;52.350;6.684;2023-01-28T01:34:46;11.73;;;7.20;;
19339;SDS011;9804;52.350;6.684;2023-01-28T01:37:11;9.63;;;7.13;;
19339;SDS011;9804;52.350;6.684;2023-01-28T01:39:37;10.03;;;6.90;;
19339;SDS011;9804;52.350;6.684;2023-01-28T01:42:02;12.97;;;7.83;;
19339;SDS011;9804;52.350;6.684;2023-01-28T01:47:18;10.27;;;7.60;;
19339;SDS011;9804;52.350;6.684;2023-01-28T01:49:47;9.20;;;6.93;;
19339;SDS011;9804;52.350;6.684;2023-01-28T01:52:14;11.63;;;8.20;;
19339;SDS011;9804;52.350;6.684;2023-01-28T01:54:43;10.27;;;7.33;;
19339;SDS011;9804;52.350;6.684;2023-01-28T01:57:13;9.60;;;7.23;;
19339;SDS011;9804;52.350;6.684;2023-01-28T01:59:41;8.67;;;6.50;;
19339;SDS011;9804;52.350;6.684;2023-01-28T02:02:08;8.80;;;6.73;;
19339;SDS011;9804;52.350;6.684;2023-01-28T02:04:36;8.60;;;6.60;;
19339;SDS011;9804;52.350;6.684;2023-01-28T02:07:04;9.93;;;7.27;;
19339;SDS011;9804;52.350;6.684;2023-01-28T02:09:33;9.77;;;6.57;;
19339;SDS011;9804;52.350;6.684;2023-01-28T02:12:01;10.37;;;7.67;;
19339;SDS011;9804;52.350;6.684;2023-01-28T02:14:34;11.33;;;7.30;;
19339;SDS011;9804;52.350;6.684;2023-01-28T02:17:03;9.80;;;7.10;;
19339;SDS011;9804;52.350;6.684;2023-01-28T02:19:36;14.00;;;7.50;;
19339;SDS011;9804;52.350;6.684;2023-01-28T02:28:08;10.13;;;6.90;;
19339;SDS011;9804;52.350;6.684;2023-01-28T02:30:48;10.63;;;7.83;;
19339;SDS011;9804;52.350;6.684;2023-01-28T02:33:25;12.37;;;8.43;;
19339;SDS011;9804;52.350;6.684;2023-01-28T02:35:57;9.70;;;7.47;;
19339;SDS011;9804;52.350;6.684;2023-01-28T02:38:34;10.97;;;8.27;;
19339;SDS011;9804;52.350;6.684;2023-01-28T02:41:04;12.10;;;9.03;;
19339;SDS011;9804;52.350;6.684;2023-01-28T02:43:35;10.93;;;8.23;;
19339;SDS011;9804;52.350;6.684;2023-01-28T02:46:02;10.23;;;7.70;;
19339;SDS011;9804;52.350;6.684;2023-01-28T02:49:29;12.23;;;8.43;;
19339;SDS011;9804;52.350;6.684;2023-01-28T02:57:10;11.70;;;8.83;;
19339;SDS011;9804;52.350;6.684;2023-01-28T02:59:48;13.80;;;8.47;;
19339;SDS011;9804;52.350;6.684;2023-01-28T03:02:22;13.53;;;8.20;;
19339;SDS011;9804;52.350;6.684;2023-01-28T03:08:33;13.90;;;8.70;;
19339;SDS011;9804;52.350;6.684;2023-01-28T03:11:29;12.83;;;7.73;;
19339;SDS011;9804;52.350;6.684;2023-01-28T03:14:17;11.63;;;8.20;;
19339;SDS011;9804;52.350;6.684;2023-01-28T03:17:02;11.43;;;8.20;;
19339;SDS011;9804;52.350;6.684;2023-01-28T03:19:48;12.13;;;8.13;;
19339;SDS011;9804;52.350;6.684;2023-01-28T03:22:33;11.27;;;7.70;;
19339;SDS011;9804;52.350;6.684;2023-01-28T03:25:20;13.93;;;8.77;;
19339;SDS011;9804;52.350;6.684;2023-01-28T03:28:09;13.90;;;9.53;;
19339;SDS011;9804;52.350;6.684;2023-01-28T03:31:14;12.53;;;8.90;;
19339;SDS011;9804;52.350;6.684;2023-01-28T03:34:02;16.40;;;9.40;;
19339;SDS011;9804;52.350;6.684;2023-01-28T03:36:48;13.43;;;9.10;;
19339;SDS011;9804;52.350;6.684;2023-01-28T03:39:19;11.87;;;8.53;;
19339;SDS011;9804;52.350;6.684;2023-01-28T03:42:07;13.00;;;8.33;;
19339;SDS011;9804;52.350;6.684;2023-01-28T03:44:34;13.83;;;9.10;;
19339;SDS011;9804;52.350;6.684;2023-01-28T03:47:19;15.13;;;9.90;;
19339;SDS011;9804;52.350;6.684;2023-01-28T03:49:47;14.63;;;10.13;;
19339;SDS011;9804;52.350;6.684;2023-01-28T03:52:15;15.57;;;10.00;;
19339;SDS011;9804;52.350;6.684;2023-01-28T03:54:43;16.40;;;10.03;;
19339;SDS011;9804;52.350;6.684;2023-01-28T03:57:11;16.63;;;10.27;;
19339;SDS011;9804;52.350;6.684;2023-01-28T03:59:37;14.93;;;10.37;;
19339;SDS011;9804;52.350;6.684;2023-01-28T04:02:02;17.27;;;10.20;;
19339;SDS011;9804;52.350;6.684;2023-01-28T04:04:29;14.83;;;9.90;;
19339;SDS011;9804;52.350;6.684;2023-01-28T04:06:56;16.03;;;9.87;;
19339;SDS011;9804;52.350;6.684;2023-01-28T04:09:22;14.70;;;10.00;;
19339;SDS011;9804;52.350;6.684;2023-01-28T04:11:47;15.23;;;10.70;;
19339;SDS011;9804;52.350;6.684;2023-01-28T04:14:14;18.17;;;10.33;;
19339;SDS011;9804;52.350;6.684;2023-01-28T04:16:41;14.57;;;9.63;;
19339;SDS011;9804;52.350;6.684;2023-01-28T04:19:07;15.97;;;10.23;;
19339;SDS011;9804;52.350;6.684;2023-01-28T04:21:33;13.77;;;9.67;;
19339;SDS011;9804;52.350;6.684;2023-01-28T04:23:58;16.07;;;10.53;;
19339;SDS011;9804;52.350;6.684;2023-01-28T04:26:24;15.73;;;10.30;;
19339;SDS011;9804;52.350;6.684;2023-01-28T04:28:49;18.43;;;10.27;;
19339;SDS011;9804;52.350;6.684;2023-01-28T04:31:15;14.60;;;10.63;;
19339;SDS011;9804;52.350;6.684;2023-01-28T04:33:40;16.83;;;10.50;;
19339;SDS011;9804;52.350;6.684;2023-01-28T04:36:05;15.87;;;10.97;;
19339;SDS011;9804;52.350;6.684;2023-01-28T04:38:31;16.50;;;9.77;;
19339;SDS011;9804;52.350;6.684;2023-01-28T04:40:56;15.33;;;10.23;;
19339;SDS011;9804;52.350;6.684;2023-01-28T04:43:22;16.47;;;10.00;;
19339;SDS011;9804;52.350;6.684;2023-01-28T04:45:47;16.83;;;10.90;;
19339;SDS011;9804;52.350;6.684;2023-01-28T04:48:13;16.63;;;10.93;;
19339;SDS011;9804;52.350;6.684;2023-01-28T04:50:41;13.57;;;10.43;;
19339;SDS011;9804;52.350;6.684;2023-01-28T04:53:06;17.97;;;10.87;;
19339;SDS011;9804;52.350;6.684;2023-01-28T04:55:32;16.53;;;11.00;;
19339;SDS011;9804;52.350;6.684;2023-01-28T04:57:57;15.50;;;10.80;;
19339;SDS011;9804;52.350;6.684;2023-01-28T05:00:22;15.67;;;11.20;;
19339;SDS011;9804;52.350;6.684;2023-01-28T05:02:48;16.40;;;11.30;;
19339;SDS011;9804;52.350;6.684;2023-01-28T05:05:13;15.17;;;10.47;;
19339;SDS011;9804;52.350;6.684;2023-01-28T05:07:39;17.47;;;11.23;;
19339;SDS011;9804;52.350;6.684;2023-01-28T05:10:04;16.63;;;11.33;;
19339;SDS011;9804;52.350;6.684;2023-01-28T05:12:30;16.43;;;11.63;;
19339;SDS011;9804;52.350;6.684;2023-01-28T05:14:58;15.03;;;10.97;;
19339;SDS011;9804;52.350;6.684;2023-01-28T05:17:26;16.40;;;12.00;;
19339;SDS011;9804;52.350;6.684;2023-01-28T05:19:52;17.13;;;12.40;;
19339;SDS011;9804;52.350;6.684;2023-01-28T05:22:18;16.40;;;11.63;;
19339;SDS011;9804;52.350;6.684;2023-01-28T05:24:43;19.00;;;12.33;;
19339;SDS011;9804;52.350;6.684;2023-01-28T05:27:09;14.27;;;11.37;;
19339;SDS011;9804;52.350;6.684;2023-01-28T05:29:34;15.33;;;11.23;;
19339;SDS011;9804;52.350;6.684;2023-01-28T05:31:59;15.50;;;11.87;;
19339;SDS011;9804;52.350;6.684;2023-01-28T05:34:25;17.23;;;12.03;;
19339;SDS011;9804;52.350;6.684;2023-01-28T05:36:50;14.93;;;11.33;;
19339;SDS011;9804;52.350;6.684;2023-01-28T05:39:15;17.43;;;11.63;;
19339;SDS011;9804;52.350;6.684;2023-01-28T05:41:41;15.93;;;11.27;;
19339;SDS011;9804;52.350;6.684;2023-01-28T05:44:06;17.10;;;11.60;;
19339;SDS011;9804;52.350;6.684;2023-01-28T05:46:32;15.80;;;11.27;;
19339;SDS011;9804;52.350;6.684;2023-01-28T05:48:57;15.90;;;12.00;;
19339;SDS011;9804;52.350;6.684;2023-01-28T05:51:23;15.40;;;11.53;;
19339;SDS011;9804;52.350;6.684;2023-01-28T05:53:48;17.47;;;11.77;;
19339;SDS011;9804;52.350;6.684;2023-01-28T05:56:13;14.53;;;11.73;;
19339;SDS011;9804;52.350;6.684;2023-01-28T05:58:39;15.30;;;11.90;;
19339;SDS011;9804;52.350;6.684;2023-01-28T06:01:04;14.23;;;11.57;;
19339;SDS011;9804;52.350;6.684;2023-01-28T06:03:30;16.77;;;11.47;;
19339;SDS011;9804;52.350;6.684;2023-01-28T06:05:55;15.87;;;11.63;;
19339;SDS011;9804;52.350;6.684;2023-01-28T06:08:20;16.90;;;12.33;;
19339;SDS011;9804;52.350;6.684;2023-01-28T06:10:46;16.57;;;12.17;;
19339;SDS011;9804;52.350;6.684;2023-01-28T06:13:11;15.60;;;11.83;;
19339;SDS011;9804;52.350;6.684;2023-01-28T06:15:36;15.83;;;12.00;;
19339;SDS011;9804;52.350;6.684;2023-01-28T06:18:02;15.40;;;11.83;;
19339;SDS011;9804;52.350;6.684;2023-01-28T06:20:27;15.47;;;12.40;;
19339;SDS011;9804;52.350;6.684;2023-01-28T06:22:53;16.03;;;12.53;;
19339;SDS011;9804;52.350;6.684;2023-01-28T06:25:18;14.90;;;11.67;;
19339;SDS011;9804;52.350;6.684;2023-01-28T06:27:44;13.83;;;11.67;;
19339;SDS011;9804;52.350;6.684;2023-01-28T06:30:10;14.57;;;11.63;;
19339;SDS011;9804;52.350;6.684;2023-01-28T06:32:36;12.60;;;11.30;;
19339;SDS011;9804;52.350;6.684;2023-01-28T06:35:01;14.43;;;11.73;;
19339;SDS011;9804;52.350;6.684;2023-01-28T06:37:27;15.33;;;11.73;;
19339;SDS011;9804;52.350;6.684;2023-01-28T06:39:52;18.13;;;11.63;;
19339;SDS011;9804;52.350;6.684;2023-01-28T06:42:18;13.50;;;11.53;;
19339;SDS011;9804;52.350;6.684;2023-01-28T06:44:43;14.10;;;11.27;;
19339;SDS011;9804;52.350;6.684;2023-01-28T06:47:08;14.87;;;12.07;;
19339;SDS011;9804;52.350;6.684;2023-01-28T06:49:35;15.20;;;12.10;;
19339;SDS011;9804;52.350;6.684;2023-01-28T06:52:03;14.33;;;11.27;;
19339;SDS011;9804;52.350;6.684;2023-01-28T06:54:29;14.17;;;11.53;;
19339;SDS011;9804;52.350;6.684;2023-01-28T06:56:54;13.97;;;12.43;;
19339;SDS011;9804;52.350;6.684;2023-01-28T06:59:19;12.43;;;11.03;;
19339;SDS011;9804;52.350;6.684;2023-01-28T07:01:45;12.50;;;11.10;;
19339;SDS011;9804;52.350;6.684;2023-01-28T07:04:10;13.23;;;11.23;;
19339;SDS011;9804;52.350;6.684;2023-01-28T07:06:36;13.37;;;11.30;;
19339;SDS011;9804;52.350;6.684;2023-01-28T07:09:01;15.13;;;11.50;;
19339;SDS011;9804;52.350;6.684;2023-01-28T07:11:27;13.90;;;11.07;;
19339;SDS011;9804;52.350;6.684;2023-01-28T07:13:52;12.40;;;11.07;;
19339;SDS011;9804;52.350;6.684;2023-01-28T07:16:17;13.30;;;11.67;;
19339;SDS011;9804;52.350;6.684;2023-01-28T07:18:43;14.53;;;11.57;;
19339;SDS011;9804;52.350;6.684;2023-01-28T07:21:08;14.23;;;11.70;;
19339;SDS011;9804;52.350;6.684;2023-01-28T07:23:34;14.43;;;11.33;;
19339;SDS011;9804;52.350;6.684;2023-01-28T07:26:00;14.07;;;11.07;;
19339;SDS011;9804;52.350;6.684;2023-01-28T07:28:26;13.53;;;10.50;;
19339;SDS011;9804;52.350;6.684;2023-01-28T07:30:51;12.20;;;9.07;;
19339;SDS011;9804;52.350;6.684;2023-01-28T07:33:17;10.77;;;9.03;;
19339;SDS011;9804;52.350;6.684;2023-01-28T07:35:43;10.43;;;8.60;;
19339;SDS011;9804;52.350;6.684;2023-01-28T07:38:10;11.70;;;8.97;;
19339;SDS011;9804;52.350;6.684;2023-01-28T07:40:35;11.70;;;8.80;;
19339;SDS011;9804;52.350;6.684;2023-01-28T07:43:01;10.83;;;8.93;;
19339;SDS011;9804;52.350;6.684;2023-01-28T07:45:26;10.60;;;8.57;;
19339;SDS011;9804;52.350;6.684;2023-01-28T07:48:01;11.80;;;8.37;;
19339;SDS011;9804;52.350;6.684;2023-01-28T07:50:28;9.77;;;8.33;;
19339;SDS011;9804;52.350;6.684;2023-01-28T07:52:56;9.90;;;8.10;;
19339;SDS011;9804;52.350;6.684;2023-01-28T07:55:22;12.27;;;8.73;;
19339;SDS011;9804;52.350;6.684;2023-01-28T07:57:52;9.53;;;8.00;;
19339;SDS011;9804;52.350;6.684;2023-01-28T08:00:19;10.40;;;8.20;;
19339;SDS011;9804;52.350;6.684;2023-01-28T08:02:46;11.03;;;8.13;;
19339;SDS011;9804;52.350;6.684;2023-01-28T08:05:18;9.83;;;8.33;;
19339;SDS011;9804;52.350;6.684;2023-01-28T08:07:45;12.73;;;7.90;;
19339;SDS011;9804;52.350;6.684;2023-01-28T08:10:12;12.17;;;8.33;;
19339;SDS011;9804;52.350;6.684;2023-01-28T08:12:38;11.50;;;7.80;;
19339;SDS011;9804;52.350;6.684;2023-01-28T08:15:04;9.30;;;7.73;;
19339;SDS011;9804;52.350;6.684;2023-01-28T08:17:30;9.73;;;8.13;;
19339;SDS011;9804;52.350;6.684;2023-01-28T08:19:56;10.73;;;7.47;;
19339;SDS011;9804;52.350;6.684;2023-01-28T08:22:25;12.20;;;7.77;;
19339;SDS011;9804;52.350;6.684;2023-01-28T08:24:51;10.53;;;7.67;;
19339;SDS011;9804;52.350;6.684;2023-01-28T08:27:16;12.73;;;8.13;;
19339;SDS011;9804;52.350;6.684;2023-01-28T08:29:41;8.87;;;7.97;;
19339;SDS011;9804;52.350;6.684;2023-01-28T08:32:07;14.50;;;7.83;;
19339;SDS011;9804;52.350;6.684;2023-01-28T08:34:33;10.27;;;8.30;;
19339;SDS011;9804;52.350;6.684;2023-01-28T08:36:59;11.80;;;8.67;;
19339;SDS011;9804;52.350;6.684;2023-01-28T08:39:24;10.57;;;8.97;;
19339;SDS011;9804;52.350;6.684;2023-01-28T08:41:50;11.80;;;9.17;;
19339;SDS011;9804;52.350;6.684;2023-01-28T08:44:15;10.90;;;9.50;;
19339;SDS011;9804;52.350;6.684;2023-01-28T08:46:40;10.83;;;9.10;;
19339;SDS011;9804;52.350;6.684;2023-01-28T08:49:06;12.17;;;9.67;;
19339;SDS011;9804;52.350;6.684;2023-01-28T08:51:31;10.40;;;9.07;;
19339;SDS011;9804;52.350;6.684;2023-01-28T08:53:56;12.97;;;9.77;;
19339;SDS011;9804;52.350;6.684;2023-01-28T08:56:22;13.27;;;10.07;;
19339;SDS011;9804;52.350;6.684;2023-01-28T08:58:47;13.47;;;9.97;;
19339;SDS011;9804;52.350;6.684;2023-01-28T09:01:13;11.70;;;9.50;;
19339;SDS011;9804;52.350;6.684;2023-01-28T09:03:38;14.43;;;10.13;;
19339;SDS011;9804;52.350;6.684;2023-01-28T09:06:03;13.27;;;10.40;;
19339;SDS011;9804;52.350;6.684;2023-01-28T09:08:29;12.60;;;9.97;;
19339;SDS011;9804;52.350;6.684;2023-01-28T09:10:55;14.10;;;10.30;;
19339;SDS011;9804;52.350;6.684;2023-01-28T09:13:21;13.70;;;10.20;;
19339;SDS011;9804;52.350;6.684;2023-01-28T09:15:48;14.37;;;10.93;;
19339;SDS011;9804;52.350;6.684;2023-01-28T09:18:13;13.83;;;10.17;;
19339;SDS011;9804;52.350;6.684;2023-01-28T09:20:39;13.93;;;10.77;;
19339;SDS011;9804;52.350;6.684;2023-01-28T09:23:05;13.53;;;10.20;;
19339;SDS011;9804;52.350;6.684;2023-01-28T09:25:30;13.97;;;10.33;;
19339;SDS011;9804;52.350;6.684;2023-01-28T09:27:56;13.10;;;10.33;;
19339;SDS011;9804;52.350;6.684;2023-01-28T09:30:22;12.77;;;10.10;;
19339;SDS011;9804;52.350;6.684;2023-01-28T09:32:50;12.10;;;9.37;;
19339;SDS011;9804;52.350;6.684;2023-01-28T09:35:16;13.27;;;9.83;;
19339;SDS011;9804;52.350;6.684;2023-01-28T09:37:42;14.37;;;10.70;;
19339;SDS011;9804;52.350;6.684;2023-01-28T09:40:10;12.43;;;9.97;;
19339;SDS011;9804;52.350;6.684;2023-01-28T09:46:10;13.73;;;10.10;;
19339;SDS011;9804;52.350;6.684;2023-01-28T09:48:18;13.40;;;9.70;;
19339;SDS011;9804;52.350;6.684;2023-01-28T09:50:47;12.07;;;9.50;;
19339;SDS011;9804;52.350;6.684;2023-01-28T09:53:19;12.00;;;9.57;;
19339;SDS011;9804;52.350;6.684;2023-01-28T09:58:24;14.47;;;10.00;;
19339;SDS011;9804;52.350;6.684;2023-01-28T10:03:51;14.77;;;11.10;;
19339;SDS011;9804;52.350;6.684;2023-01-28T10:09:20;14.43;;;11.03;;
19339;SDS011;9804;52.350;6.684;2023-01-28T10:12:15;15.43;;;10.83;;
19339;SDS011;9804;52.350;6.684;2023-01-28T10:17:55;15.03;;;11.17;;
19339;SDS011;9804;52.350;6.684;2023-01-28T10:20:30;15.63;;;11.07;;
19339;SDS011;9804;52.350;6.684;2023-01-28T10:23:03;16.17;;;10.73;;
19339;SDS011;9804;52.350;6.684;2023-01-28T10:25:48;14.43;;;10.47;;
19339;SDS011;9804;52.350;6.684;2023-01-28T10:28:18;16.67;;;11.47;;
19339;SDS011;9804;52.350;6.684;2023-01-28T10:30:47;15.03;;;11.00;;
19339;SDS011;9804;52.350;6.684;2023-01-28T10:35:51;17.93;;;11.17;;
19339;SDS011;9804;52.350;6.684;2023-01-28T10:38:19;13.90;;;10.47;;
19339;SDS011;9804;52.350;6.684;2023-01-28T10:40:46;16.20;;;10.80;;
19339;SDS011;9804;52.350;6.684;2023-01-28T10:43:15;17.07;;;11.10;;
19339;SDS011;9804;52.350;6.684;2023-01-28T10:45:52;16.17;;;11.33;;
19339;SDS011;9804;52.350;6.684;2023-01-28T10:48:37;15.83;;;10.53;;
19339;SDS011;9804;52.350;6.684;2023-01-28T10:51:35;15.13;;;10.63;;
19339;SDS011;9804;52.350;6.684;2023-01-28T10:54:02;14.33;;;10.07;;
19339;SDS011;9804;52.350;6.684;2023-01-28T10:56:41;15.53;;;10.87;;
19339;SDS011;9804;52.350;6.684;2023-01-28T10:59:27;16.13;;;10.47;;
19339;SDS011;9804;52.350;6.684;2023-01-28T11:01:57;13.67;;;9.87;;
19339;SDS011;9804;52.350;6.684;2023-01-28T11:04:25;12.77;;;9.50;;
19339;SDS011;9804;52.350;6.684;2023-01-28T11:07:01;17.27;;;9.70;;
19339;SDS011;9804;52.350;6.684;2023-01-28T11:09:31;17.90;;;10.40;;
19339;SDS011;9804;52.350;6.684;2023-01-28T11:12:09;13.87;;;10.03;;
19339;SDS011;9804;52.350;6.684;2023-01-28T11:14:36;14.53;;;10.50;;
19339;SDS011;9804;52.350;6.684;2023-01-28T11:17:01;15.40;;;10.13;;
19339;SDS011;9804;52.350;6.684;2023-01-28T11:19:28;16.63;;;10.57;;
19339;SDS011;9804;52.350;6.684;2023-01-28T11:21:58;14.73;;;11.03;;
19339;SDS011;9804;52.350;6.684;2023-01-28T11:24:25;13.80;;;10.50;;
19339;SDS011;9804;52.350;6.684;2023-01-28T11:26:56;12.17;;;9.73;;
19339;SDS011;9804;52.350;6.684;2023-01-28T11:29:27;13.97;;;10.37;;
19339;SDS011;9804;52.350;6.684;2023-01-28T11:31:58;12.73;;;9.73;;
19339;SDS011;9804;52.350;6.684;2023-01-28T11:34:26;15.97;;;10.53;;
19339;SDS011;9804;52.350;6.684;2023-01-28T11:37:00;14.90;;;10.57;;
19339;SDS011;9804;52.350;6.684;2023-01-28T11:39:42;15.23;;;10.50;;
19339;SDS011;9804;52.350;6.684;2023-01-28T11:42:10;13.73;;;10.53;;
19339;SDS011;9804;52.350;6.684;2023-01-28T11:44:39;15.37;;;10.63;;
19339;SDS011;9804;52.350;6.684;2023-01-28T11:50:39;14.63;;;9.63;;
19339;SDS011;9804;52.350;6.684;2023-01-28T11:53:11;15.63;;;10.80;;
19339;SDS011;9804;52.350;6.684;2023-01-28T11:58:50;14.20;;;9.53;;
19339;SDS011;9804;52.350;6.684;2023-01-28T12:01:23;13.63;;;8.97;;
19339;SDS011;9804;52.350;6.684;2023-01-28T12:10:01;14.00;;;8.30;;
19339;SDS011;9804;52.350;6.684;2023-01-28T12:12:46;14.77;;;8.63;;
19339;SDS011;9804;52.350;6.684;2023-01-28T12:15:43;13.67;;;8.83;;
19339;SDS011;9804;52.350;6.684;2023-01-28T12:39:10;11.90;;;7.87;;
19339;SDS011;9804;52.350;6.684;2023-01-28T12:41:53;12.30;;;7.93;;
19339;SDS011;9804;52.350;6.684;2023-01-28T12:44:33;11.37;;;7.90;;
19339;SDS011;9804;52.350;6.684;2023-01-28T12:47:06;12.03;;;8.60;;
19339;SDS011;9804;52.350;6.684;2023-01-28T12:52:13;13.63;;;8.93;;
19339;SDS011;9804;52.350;6.684;2023-01-28T12:54:52;13.03;;;8.70;;
19339;SDS011;9804;52.350;6.684;2023-01-28T12:57:22;14.80;;;8.67;;
19339;SDS011;9804;52.350;6.684;2023-01-28T12:59:52;14.67;;;8.80;;
19339;SDS011;9804;52.350;6.684;2023-01-28T13:02:26;11.87;;;8.60;;
19339;SDS011;9804;52.350;6.684;2023-01-28T13:12:45;14.13;;;8.73;;
19339;SDS011;9804;52.350;6.684;2023-01-28T13:15:12;12.23;;;7.93;;
19339;SDS011;9804;52.350;6.684;2023-01-28T13:17:51;11.10;;;7.73;;
19339;SDS011;9804;52.350;6.684;2023-01-28T13:20:35;13.97;;;9.10;;
19339;SDS011;9804;52.350;6.684;2023-01-28T13:25:54;13.23;;;8.23;;
19339;SDS011;9804;52.350;6.684;2023-01-28T13:28:24;14.47;;;9.40;;
19339;SDS011;9804;52.350;6.684;2023-01-28T13:31:02;12.17;;;8.47;;
19339;SDS011;9804;52.350;6.684;2023-01-28T13:33:38;13.90;;;9.10;;
19339;SDS011;9804;52.350;6.684;2023-01-28T13:36:09;11.97;;;8.50;;
19339;SDS011;9804;52.350;6.684;2023-01-28T13:38:58;11.17;;;8.00;;
19339;SDS011;9804;52.350;6.684;2023-01-28T13:41:48;12.03;;;8.60;;
19339;SDS011;9804;52.350;6.684;2023-01-28T13:44:29;13.83;;;8.57;;
19339;SDS011;9804;52.350;6.684;2023-01-28T13:52:31;12.97;;;8.10;;
19339;SDS011;9804;52.350;6.684;2023-01-28T13:55:02;13.10;;;8.50;;
19339;SDS011;9804;52.350;6.684;2023-01-28T14:00:45;11.97;;;7.30;;
19339;SDS011;9804;52.350;6.684;2023-01-28T14:03:32;11.20;;;7.40;;
19339;SDS011;9804;52.350;6.684;2023-01-28T14:06:25;11.63;;;7.83;;
19339;SDS011;9804;52.350;6.684;2023-01-28T14:20:16;17.00;;;8.67;;
19339;SDS011;9804;52.350;6.684;2023-01-28T14:23:05;14.00;;;8.73;;
19339;SDS011;9804;52.350;6.684;2023-01-28T14:28:33;11.70;;;7.80;;
19339;SDS011;9804;52.350;6.684;2023-01-28T14:31:23;15.57;;;8.60;;
19339;SDS011;9804;52.350;6.684;2023-01-28T14:33:52;13.90;;;9.23;;
19339;SDS011;9804;52.350;6.684;2023-01-28T14:36:19;13.40;;;9.97;;
19339;SDS011;9804;52.350;6.684;2023-01-28T14:38:44;15.63;;;9.53;;
19339;SDS011;9804;52.350;6.684;2023-01-28T14:41:17;15.20;;;9.53;;
19339;SDS011;9804;52.350;6.684;2023-01-28T14:43:49;13.87;;;9.53;;
19339;SDS011;9804;52.350;6.684;2023-01-28T14:46:22;12.47;;;8.93;;
19339;SDS011;9804;52.350;6.684;2023-01-28T14:51:53;12.87;;;9.17;;
19339;SDS011;9804;52.350;6.684;2023-01-28T14:57:20;12.37;;;8.83;;
19339;SDS011;9804;52.350;6.684;2023-01-28T14:59:56;13.67;;;8.93;;
19339;SDS011;9804;52.350;6.684;2023-01-28T15:02:23;12.83;;;9.27;;
19339;SDS011;9804;52.350;6.684;2023-01-28T15:04:50;13.33;;;9.57;;
19339;SDS011;9804;52.350;6.684;2023-01-28T15:09:46;14.37;;;9.73;;
19339;SDS011;9804;52.350;6.684;2023-01-28T15:12:13;16.97;;;10.53;;
19339;SDS011;9804;52.350;6.684;2023-01-28T15:14:39;15.77;;;9.90;;
19339;SDS011;9804;52.350;6.684;2023-01-28T15:17:11;15.87;;;10.77;;
19339;SDS011;9804;52.350;6.684;2023-01-28T15:19:45;18.07;;;10.93;;
19339;SDS011;9804;52.350;6.684;2023-01-28T15:22:12;17.00;;;10.73;;
19339;SDS011;9804;52.350;6.684;2023-01-28T15:24:39;16.00;;;10.03;;
19339;SDS011;9804;52.350;6.684;2023-01-28T15:27:12;13.97;;;9.77;;
19339;SDS011;9804;52.350;6.684;2023-01-28T15:29:49;13.43;;;9.23;;
19339;SDS011;9804;52.350;6.684;2023-01-28T15:32:19;14.40;;;10.20;;
19339;SDS011;9804;52.350;6.684;2023-01-28T15:34:48;15.20;;;9.80;;
19339;SDS011;9804;52.350;6.684;2023-01-28T15:37:13;16.77;;;10.53;;
19339;SDS011;9804;52.350;6.684;2023-01-28T15:39:40;15.83;;;9.93;;
19339;SDS011;9804;52.350;6.684;2023-01-28T15:42:05;15.10;;;9.90;;
19339;SDS011;9804;52.350;6.684;2023-01-28T15:44:41;16.77;;;10.00;;
19339;SDS011;9804;52.350;6.684;2023-01-28T15:47:22;16.57;;;9.83;;
19339;SDS011;9804;52.350;6.684;2023-01-28T15:49:50;15.53;;;9.83;;
19339;SDS011;9804;52.350;6.684;2023-01-28T15:52:19;16.20;;;10.47;;
19339;SDS011;9804;52.350;6.684;2023-01-28T15:54:49;13.97;;;9.77;;
19339;SDS011;9804;52.350;6.684;2023-01-28T15:57:27;15.20;;;10.40;;
19339;SDS011;9804;52.350;6.684;2023-01-28T16:02:32;19.67;;;11.90;;
19339;SDS011;9804;52.350;6.684;2023-01-28T16:05:06;20.30;;;12.17;;
19339;SDS011;9804;52.350;6.684;2023-01-28T16:07:47;16.03;;;10.70;;
19339;SDS011;9804;52.350;6.684;2023-01-28T16:10:18;16.03;;;10.43;;
19339;SDS011;9804;52.350;6.684;2023-01-28T16:12:49;14.93;;;10.30;;
19339;SDS011;9804;52.350;6.684;2023-01-28T16:15:18;16.30;;;10.63;;
19339;SDS011;9804;52.350;6.684;2023-01-28T16:17:49;18.00;;;10.87;;
19339;SDS011;9804;52.350;6.684;2023-01-28T16:20:26;16.03;;;10.67;;
19339;SDS011;9804;52.350;6.684;2023-01-28T16:22:54;18.97;;;12.00;;
19339;SDS011;9804;52.350;6.684;2023-01-28T16:28:01;18.63;;;10.73;;
19339;SDS011;9804;52.350;6.684;2023-01-28T16:30:27;17.90;;;11.53;;
19339;SDS011;9804;52.350;6.684;2023-01-28T16:32:53;18.57;;;11.17;;
19339;SDS011;9804;52.350;6.684;2023-01-28T16:35:21;21.67;;;12.33;;
19339;SDS011;9804;52.350;6.684;2023-01-28T16:37:53;22.70;;;12.57;;
19339;SDS011;9804;52.350;6.684;2023-01-28T16:40:20;20.50;;;12.40;;
19339;SDS011;9804;52.350;6.684;2023-01-28T16:42:47;16.83;;;11.47;;
19339;SDS011;9804;52.350;6.684;2023-01-28T16:45:17;19.37;;;11.93;;
19339;SDS011;9804;52.350;6.684;2023-01-28T16:47:47;16.33;;;11.17;;
19339;SDS011;9804;52.350;6.684;2023-01-28T16:50:13;16.73;;;10.87;;
19339;SDS011;9804;52.350;6.684;2023-01-28T16:52:39;16.50;;;11.70;;
19339;SDS011;9804;52.350;6.684;2023-01-28T16:55:13;16.73;;;11.57;;
19339;SDS011;9804;52.350;6.684;2023-01-28T16:57:41;18.87;;;11.87;;
19339;SDS011;9804;52.350;6.684;2023-01-28T17:00:07;17.97;;;11.93;;